Time;durP1;ratioP1;P1;durP2;ratioP2;P2;SDS_P1;SDS_P2;PMS_P1;PMS_P2;Temp;Humidity;BMP_temperature;BMP_pressure;BME280_temperature;BME280_humidity;BME280_pressure;Samples;Min_cycle;Max_cycle;Signal;HPM_P1;HPM_P2
2023/07/19 00:00:23;;;;;;;8.10;4.05;;;15.10;46.40;;;;;;10347002;28;20208;-81
2023/07/19 00:05:44;;;;;;;8.90;5.20;;;15.10;99.90;;;;;;10359576;28;20563;-82
2023/07/19 00:11:06;;;;;;;5.63;3.55;;;15.10;1.00;;;;;;10320388;28;20231;-82
2023/07/19 00:16:27;;;;;;;5.30;3.03;;;15.20;99.90;;;;;;10352139;28;20200;-81
2023/07/19 00:21:49;;;;;;;5.07;2.47;;;15.10;99.90;;;;;;10346406;28;20204;-82
2023/07/19 00:27:10;;;;;;;4.78;2.50;;;15.20;1.00;;;;;;10341587;28;20224;-82
2023/07/19 00:32:31;;;;;;;7.70;4.72;;;15.20;99.90;;;;;;10358767;28;20201;-82
2023/07/19 00:37:53;;;;;;;6.03;3.97;;;15.10;99.90;;;;;;10359429;28;20225;-82
2023/07/19 00:43:15;;;;;;;11.52;4.95;;;15.10;99.90;;;;;;10353911;28;20211;-82
2023/07/19 00:48:36;;;;;;;8.68;3.28;;;15.00;99.90;;;;;;10328802;28;20546;-82
2023/07/19 00:53:58;;;;;;;8.20;3.45;;;14.90;99.90;;;;;;10332825;28;20298;-81
2023/07/19 00:59:22;;;;;;;3.70;2.80;;;14.90;99.90;;;;;;10357785;28;20210;-82
2023/07/19 01:04:44;;;;;;;8.35;2.65;;;14.90;99.90;;;;;;10354867;28;20226;-82
2023/07/19 01:10:06;;;;;;;6.18;2.50;;;14.90;99.90;;;;;;10344781;28;20527;-83
2023/07/19 01:15:28;;;;;;;4.80;2.90;;;14.90;1.00;;;;;;10330071;28;20209;-82
2023/07/19 01:20:51;;;;;;;2.50;2.20;;;14.90;99.90;;;;;;10358173;28;20195;-82
2023/07/19 01:26:13;;;;;;;4.15;2.50;;;14.80;99.90;;;;;;10333278;28;20204;-83
2023/07/19 01:31:35;;;;;;;2.28;2.00;;;14.80;99.90;;;;;;10344270;28;20220;-82
2023/07/19 01:36:57;;;;;;;2.88;2.20;;;14.80;1.00;;;;;;10356084;28;20530;-83
2023/07/19 01:42:18;;;;;;;3.35;2.40;;;14.80;1.00;;;;;;10320837;28;20519;-82
2023/07/19 01:47:40;;;;;;;3.47;1.90;;;14.90;1.00;;;;;;10356958;28;20223;-82
2023/07/19 01:53:02;;;;;;;2.63;1.95;;;14.90;1.00;;;;;;10352660;28;20258;-81
2023/07/19 01:58:23;;;;;;;2.92;2.17;;;15.00;1.00;;;;;;10355165;28;20212;-82
2023/07/19 02:03:44;;;;;;;3.03;1.85;;;15.10;56.70;;;;;;10354922;28;20267;-82
2023/07/19 02:09:06;;;;;;;2.58;2.10;;;15.20;1.00;;;;;;10342221;28;20280;-83
2023/07/19 02:14:28;;;;;;;4.30;2.17;;;15.20;1.00;;;;;;10355189;28;20202;-82
2023/07/19 02:19:49;;;;;;;5.30;2.08;;;15.20;1.00;;;;;;10342236;28;20208;-82
2023/07/19 02:25:11;;;;;;;2.75;2.20;;;15.20;1.00;;;;;;10350309;28;20565;-82
2023/07/19 02:30:32;;;;;;;5.55;3.20;;;15.20;1.00;;;;;;10341557;28;20410;-82
2023/07/19 02:35:54;;;;;;;3.28;2.50;;;15.30;1.00;;;;;;10340324;28;20259;-82
2023/07/19 02:41:15;;;;;;;4.47;2.40;;;15.30;20.10;;;;;;10331336;28;20486;-83
2023/07/19 02:46:37;;;;;;;3.85;2.47;;;15.40;1.00;;;;;;10347975;28;20204;-82
2023/07/19 02:51:58;;;;;;;4.47;3.65;;;15.50;1.00;;;;;;10354271;28;20549;-82
2023/07/19 02:57:20;;;;;;;4.60;2.88;;;15.60;1.00;;;;;;10347763;28;20235;-82
2023/07/19 03:02:41;;;;;;;3.80;2.38;;;15.50;1.00;;;;;;10354100;28;20278;-82
2023/07/19 03:08:04;;;;;;;4.30;2.25;;;15.60;1.00;;;;;;10335324;28;20446;-83
2023/07/19 03:13:25;;;;;;;2.80;2.45;;;15.70;1.00;;;;;;10339932;28;20231;-81
2023/07/19 03:18:47;;;;;;;5.22;2.70;;;15.70;1.00;;;;;;10351873;28;20204;-82
2023/07/19 03:24:08;;;;;;;4.00;2.92;;;15.80;1.00;;;;;;10348416;28;20549;-83
2023/07/19 03:29:30;;;;;;;5.22;3.08;;;15.90;99.90;;;;;;10351893;28;20486;-81
2023/07/19 03:34:51;;;;;;;4.72;2.35;;;16.00;99.90;;;;;;10353231;28;20208;-81
2023/07/19 03:40:13;;;;;;;3.72;2.05;;;16.10;99.90;;;;;;10338350;28;20207;-82
2023/07/19 03:45:37;;;;;;;3.72;2.10;;;16.20;99.90;;;;;;10352933;28;20201;-82
2023/07/19 03:51:01;;;;;;;6.03;2.10;;;16.20;99.90;;;;;;10350203;28;20239;-82
2023/07/19 03:56:25;;;;;;;2.15;1.52;;;16.20;99.90;;;;;;10339094;28;20196;-83
2023/07/19 04:01:47;;;;;;;3.05;2.10;;;16.20;99.90;;;;;;10340394;28;20356;-82
2023/07/19 04:07:08;;;;;;;4.22;2.75;;;16.20;1.00;;;;;;10337609;28;20270;-83
2023/07/19 04:12:29;;;;;;;3.08;2.20;;;16.20;1.00;;;;;;10339282;28;20216;-82
2023/07/19 04:17:50;;;;;;;2.63;2.10;;;16.20;1.00;;;;;;10351370;28;20397;-83
2023/07/19 04:23:13;;;;;;;4.10;2.88;;;16.20;1.00;;;;;;10354151;28;20278;-83
2023/07/19 04:28:36;;;;;;;4.20;2.42;;;16.20;1.00;;;;;;10328034;28;20238;-83
2023/07/19 04:33:59;;;;;;;3.97;2.30;;;16.20;16.10;;;;;;10359590;28;20200;-82
2023/07/19 04:39:21;;;;;;;4.07;2.47;;;16.10;1.00;;;;;;10351940;28;20205;-83
2023/07/19 04:44:42;;;;;;;3.28;2.30;;;16.10;99.90;;;;;;10358812;28;20390;-83
2023/07/19 04:50:07;;;;;;;3.25;2.10;;;16.20;99.90;;;;;;10333528;28;20283;-82
2023/07/19 04:55:28;;;;;;;3.63;2.38;;;16.30;99.90;;;;;;10311368;28;20201;-81
2023/07/19 05:00:51;;;;;;;3.80;2.40;;;16.40;1.00;;;;;;10336786;28;20216;-82
2023/07/19 05:06:12;;;;;;;2.72;1.95;;;16.40;20.00;;;;;;10348030;28;20201;-82
2023/07/19 05:11:34;;;;;;;4.20;1.95;;;16.60;63.90;;;;;;10368516;28;20238;-79
2023/07/19 05:16:56;;;;;;;1.98;1.77;;;16.70;1.00;;;;;;10360897;28;20538;-83
2023/07/19 05:22:17;;;;;;;3.05;2.00;;;16.90;1.00;;;;;;10344549;28;20201;-83
2023/07/19 05:27:38;;;;;;;3.50;2.10;;;17.00;99.90;;;;;;10354703;28;20209;-83
2023/07/19 05:32:59;;;;;;;4.22;1.98;;;17.20;99.90;;;;;;10318925;28;20229;-83
2023/07/19 05:38:21;;;;;;;4.47;1.70;;;17.30;99.90;;;;;;10329060;28;20571;-84
2023/07/19 05:43:43;;;;;;;2.90;2.00;;;17.20;99.90;;;;;;10341005;28;20459;-84
2023/07/19 05:49:05;;;;;;;2.65;2.00;;;17.30;99.90;;;;;;10342751;28;20237;-84
2023/07/19 05:54:26;;;;;;;4.13;1.98;;;17.30;99.90;;;;;;10323178;28;20216;-83
2023/07/19 05:59:48;;;;;;;2.78;2.10;;;17.30;99.90;;;;;;10315647;28;20249;-82
2023/07/19 06:05:09;;;;;;;5.40;1.85;;;17.20;99.90;;;;;;10331737;28;20244;-79
2023/07/19 06:10:30;;;;;;;3.38;2.15;;;17.20;99.90;;;;;;10321320;28;20410;-80
2023/07/19 06:15:52;;;;;;;3.38;1.98;;;17.20;99.90;;;;;;10341737;28;20236;-80
2023/07/19 06:21:13;;;;;;;3.88;2.10;;;17.20;99.90;;;;;;10350919;28;20223;-82
2023/07/19 06:26:34;;;;;;;4.43;2.15;;;17.20;99.90;;;;;;10347392;28;20201;-83
2023/07/19 06:31:55;;;;;;;4.22;1.80;;;17.30;99.90;;;;;;10351255;28;20271;-81
2023/07/19 06:37:17;;;;;;;4.97;1.92;;;17.30;99.90;;;;;;10354730;28;20201;-84
2023/07/19 06:42:39;;;;;;;5.43;1.90;;;17.30;99.90;;;;;;10343791;28;20206;-82
2023/07/19 06:48:00;;;;;;;4.60;1.48;;;17.40;99.90;;;;;;10354788;28;20200;-83
2023/07/19 06:53:21;;;;;;;2.28;1.63;;;17.50;99.90;;;;;;10364574;28;20388;-83
2023/07/19 06:58:43;;;;;;;3.42;2.03;;;17.40;99.90;;;;;;10338851;28;20212;-83
2023/07/19 07:04:07;;;;;;;2.72;1.65;;;17.50;99.90;;;;;;10338864;28;20238;-81
2023/07/19 07:09:28;;;;;;;3.40;1.75;;;17.70;99.90;;;;;;10322334;28;20263;-83
2023/07/19 07:14:50;;;;;;;3.85;1.52;;;17.90;21.70;;;;;;10336689;28;20542;-81
2023/07/19 07:20:12;;;;;;;2.55;1.67;;;18.10;1.00;;;;;;10348120;28;20202;-78
2023/07/19 07:25:33;;;;;;;4.00;1.70;;;18.20;1.00;;;;;;10338141;28;20264;-79
2023/07/19 07:30:55;;;;;;;3.03;1.58;;;18.30;11.20;;;;;;10321008;28;20234;-78
2023/07/19 07:36:17;;;;;;;3.72;1.83;;;18.30;90.20;;;;;;10344799;28;20233;-77
2023/07/19 07:41:38;;;;;;;1.95;1.30;;;18.40;95.00;;;;;;10346645;28;20248;-78
2023/07/19 07:47:00;;;;;;;3.53;1.63;;;18.50;66.80;;;;;;10309131;28;20476;-80
2023/07/19 07:52:21;;;;;;;2.90;1.42;;;18.50;99.90;;;;;;10316814;28;20455;-80
2023/07/19 07:57:43;;;;;;;4.32;1.85;;;18.50;56.30;;;;;;10349500;28;20511;-77
2023/07/19 08:03:04;;;;;;;6.28;1.80;;;18.40;99.90;;;;;;10358701;28;20233;-77
2023/07/19 08:08:26;;;;;;;2.88;1.80;;;18.40;99.90;;;;;;10351127;28;20618;-78
2023/07/19 08:13:47;;;;;;;8.93;4.72;;;18.30;99.90;;;;;;10342149;28;20236;-79
2023/07/19 08:19:08;;;;;;;5.50;2.95;;;18.20;99.90;;;;;;10387850;28;20223;-80
2023/07/19 08:24:31;;;;;;;2.65;2.10;;;18.20;1.00;;;;;;10394333;28;20428;-77
2023/07/19 08:29:52;;;;;;;3.03;1.95;;;18.20;1.00;;;;;;10384761;28;20224;-79
2023/07/19 08:35:14;;;;;;;3.67;2.25;;;18.30;99.90;;;;;;10393685;28;20192;-78
2023/07/19 08:40:38;;;;;;;4.32;1.67;;;18.30;99.90;;;;;;10369879;28;20204;-80
2023/07/19 08:46:03;;;;;;;2.60;2.10;;;18.40;99.90;;;;;;10394375;28;20526;-79
2023/07/19 08:51:25;;;;;;;1.75;1.45;;;18.40;99.90;;;;;;10393553;28;20233;-77
2023/07/19 08:56:46;;;;;;;2.20;1.75;;;18.40;99.90;;;;;;10387911;28;20400;-82
2023/07/19 09:02:08;;;;;;;5.53;1.70;;;18.60;99.90;;;;;;10394246;28;20593;-81
2023/07/19 09:07:29;;;;;;;2.05;1.48;;;18.70;99.00;;;;;;10421586;28;20216;-78
2023/07/19 09:12:50;;;;;;;2.65;1.67;;;18.80;99.90;;;;;;10351160;28;20243;-78
2023/07/19 09:18:11;;;;;;;4.80;1.52;;;18.90;75.70;;;;;;10391626;28;20215;-80
2023/07/19 09:23:36;;;;;;;5.55;1.50;;;19.00;55.40;;;;;;10365341;28;20449;-80
2023/07/19 09:28:57;;;;;;;4.97;2.20;;;19.00;1.00;;;;;;10392067;28;20220;-78
2023/07/19 09:34:22;;;;;;;3.78;1.50;;;19.00;99.90;;;;;;10393129;28;20197;-79
2023/07/19 09:39:44;;;;;;;2.80;1.50;;;18.90;99.90;;;;;;10389992;28;20197;-81
2023/07/19 09:45:08;;;;;;;4.35;1.50;;;19.00;1.00;;;;;;10392610;28;20491;-82
2023/07/19 09:50:29;;;;;;;2.83;1.27;;;19.00;1.00;;;;;;10363756;28;20244;-77
2023/07/19 09:55:54;;;;;;;1.70;1.60;;;19.00;1.00;;;;;;10390766;28;20453;-81
2023/07/19 10:01:15;;;;;;;2.72;1.73;;;18.90;1.00;;;;;;10391751;28;20208;-77
2023/07/19 10:06:37;;;;;;;2.80;1.50;;;18.70;1.00;;;;;;10390451;28;20283;-79
2023/07/19 10:12:05;;;;;;;6.45;2.42;;;18.70;1.00;;;;;;10343079;28;20249;-80
2023/07/19 10:17:29;;;;;;;4.90;1.58;;;18.80;1.00;;;;;;10373872;28;20284;-79
2023/07/19 10:23:07;;;;;;;4.90;1.58;;;18.80;99.90;;;;;;10387817;28;20209;-78
2023/07/19 10:28:30;;;;;;;3.42;1.63;;;18.60;99.90;;;;;;10369093;28;20209;-79
2023/07/19 10:33:54;;;;;;;5.60;2.38;;;18.40;99.90;;;;;;10386909;28;20215;-80
2023/07/19 10:39:15;;;;;;;3.70;1.75;;;18.40;99.90;;;;;;10390014;28;20575;-79
2023/07/19 10:44:37;;;;;;;2.88;1.45;;;18.30;1.00;;;;;;10382586;28;20197;-78
2023/07/19 10:49:58;;;;;;;2.15;1.60;;;18.30;99.90;;;;;;10399557;28;20416;-83
2023/07/19 10:55:20;;;;;;;4.45;1.60;;;18.40;99.10;;;;;;10375041;28;20225;-78
2023/07/19 11:00:56;;;;;;;2.90;1.58;;;18.40;1.00;;;;;;10389130;28;20304;-84
2023/07/19 11:06:18;;;;;;;3.70;1.50;;;18.50;99.90;;;;;;10376215;28;20251;-81
2023/07/19 11:11:39;;;;;;;3.95;1.65;;;18.50;59.40;;;;;;10387507;28;20225;-79
2023/07/19 11:17:01;;;;;;;1.77;1.10;;;18.60;99.90;;;;;;10390570;28;20288;-80
2023/07/19 11:22:24;;;;;;;1.67;1.10;;;18.50;99.90;;;;;;10412931;28;20209;-80
2023/07/19 11:27:49;;;;;;;1.38;1.20;;;18.50;99.90;;;;;;10407874;28;20212;-79
2023/07/19 11:33:10;;;;;;;3.63;1.25;;;18.40;1.00;;;;;;10394508;28;20581;-80
2023/07/19 11:38:33;;;;;;;3.67;1.55;;;18.40;99.90;;;;;;10395947;28;20203;-80
2023/07/19 11:43:54;;;;;;;3.05;1.60;;;18.40;99.90;;;;;;10397101;28;20593;-78
2023/07/19 11:49:16;;;;;;;3.25;1.60;;;18.50;99.90;;;;;;10396455;28;20223;-82
2023/07/19 11:54:37;;;;;;;8.90;4.07;;;18.70;1.00;;;;;;10396336;28;20197;-78
2023/07/19 11:59:59;;;;;;;4.82;1.50;;;19.10;1.00;;;;;;10379593;28;20244;-78
2023/07/19 12:05:23;;;;;;;2.60;1.23;;;19.30;1.00;;;;;;10387812;28;20307;-76
2023/07/19 12:10:45;;;;;;;1.77;0.93;;;19.50;1.00;;;;;;10368301;28;20268;-77
2023/07/19 12:16:06;;;;;;;5.20;0.98;;;19.40;1.00;;;;;;10358418;28;20668;-82
2023/07/19 12:21:27;;;;;;;2.88;1.25;;;19.30;1.00;;;;;;10388443;28;20236;-79
2023/07/19 12:26:49;;;;;;;1.58;0.80;;;19.20;1.00;;;;;;10396805;28;20197;-76
2023/07/19 12:32:10;;;;;;;3.17;1.10;;;19.20;1.00;;;;;;10381289;28;20224;-76
2023/07/19 12:37:33;;;;;;;2.35;0.98;;;19.10;1.00;;;;;;10359005;28;20189;-79
2023/07/19 12:42:54;;;;;;;2.35;1.20;;;19.10;1.00;;;;;;10393494;28;20504;-81
2023/07/19 12:48:16;;;;;;;1.30;1.20;;;19.00;1.00;;;;;;10388528;28;20382;-78
2023/07/19 12:53:37;;;;;;;4.70;1.50;;;18.80;1.00;;;;;;10390420;28;20502;-83
2023/07/19 12:58:59;;;;;;;1.20;1.10;;;18.50;99.90;;;;;;10395631;28;20208;-81
2023/07/19 13:04:21;;;;;;;4.15;1.23;;;18.30;1.00;;;;;;10391449;28;20236;-76
2023/07/19 13:09:42;;;;;;;2.70;1.25;;;18.20;1.00;;;;;;10392617;28;20267;-76
2023/07/19 13:15:04;;;;;;;8.50;5.07;;;18.00;99.90;;;;;;10392408;28;20209;-78
2023/07/19 13:20:26;;;;;;;3.47;2.03;;;17.90;1.00;;;;;;10393009;28;20209;-85
2023/07/19 13:25:47;;;;;;;2.80;1.88;;;17.90;1.00;;;;;;10391790;28;20197;-76
2023/07/19 13:31:08;;;;;;;4.40;1.73;;;18.30;1.00;;;;;;10388659;28;20409;-79
2023/07/19 13:36:31;;;;;;;3.15;1.52;;;18.40;1.00;;;;;;10380870;28;20236;-86
2023/07/19 13:42:12;;;;;;;2.33;1.80;;;18.70;1.00;;;;;;10368349;28;20579;-79
2023/07/19 13:47:33;;;;;;;1.85;1.50;;;18.80;55.50;;;;;;10392420;28;20193;-76
2023/07/19 13:52:54;;;;;;;2.20;1.63;;;18.60;1.00;;;;;;10392188;28;20237;-81
2023/07/19 13:58:16;;;;;;;2.42;1.50;;;18.40;1.00;;;;;;10377489;28;20197;-80
2023/07/19 14:03:37;;;;;;;2.53;1.63;;;18.20;1.00;;;;;;10390003;28;20325;-75
2023/07/19 14:08:58;;;;;;;2.78;2.00;;;18.20;1.00;;;;;;10392506;28;20255;-80
2023/07/19 14:14:19;;;;;;;2.20;1.30;;;18.40;1.00;;;;;;10373528;28;20244;-78
2023/07/19 14:19:41;;;;;;;3.17;1.15;;;18.70;99.90;;;;;;10392605;28;20519;-78
2023/07/19 14:25:03;;;;;;;2.92;1.58;;;18.80;99.90;;;;;;10392119;28;20534;-86
2023/07/19 14:30:24;;;;;;;1.55;1.20;;;18.80;90.80;;;;;;10364034;28;20773;-75
2023/07/19 14:35:46;;;;;;;2.38;1.23;;;18.80;1.00;;;;;;10351575;28;20231;-86
2023/07/19 14:41:07;;;;;;;2.03;1.08;;;18.80;1.00;;;;;;10383390;28;20204;-75
2023/07/19 14:46:28;;;;;;;1.20;0.85;;;18.80;1.00;;;;;;10375568;28;20304;-79
2023/07/19 14:51:49;;;;;;;1.55;0.93;;;18.70;1.00;;;;;;10350635;28;20264;-79
2023/07/19 14:57:10;;;;;;;2.60;1.30;;;18.70;1.00;;;;;;10371422;28;20263;-79
2023/07/19 15:02:31;;;;;;;1.60;0.90;;;18.70;82.30;;;;;;10390370;28;20263;-79
2023/07/19 15:07:54;;;;;;;2.72;1.10;;;18.80;1.00;;;;;;10375711;28;20202;-80
2023/07/19 15:13:15;;;;;;;2.05;1.27;;;18.80;1.00;;;;;;10393814;28;20234;-80
2023/07/19 15:18:40;;;;;;;2.17;1.20;;;18.90;1.00;;;;;;10366731;28;20193;-79
2023/07/19 15:24:01;;;;;;;2.28;0.98;;;19.00;1.00;;;;;;10384447;28;20208;-79
2023/07/19 15:29:24;;;;;;;3.92;1.10;;;19.10;1.00;;;;;;10379686;28;20226;-79
2023/07/19 15:34:45;;;;;;;1.10;1.00;;;19.10;1.00;;;;;;10336871;28;20374;-77
2023/07/19 15:40:07;;;;;;;3.47;1.10;;;19.20;1.00;;;;;;10344153;28;20514;-79
2023/07/19 15:45:28;;;;;;;1.10;0.90;;;19.20;1.00;;;;;;10355837;28;20197;-79
2023/07/19 15:50:51;;;;;;;2.22;0.90;;;19.10;1.00;;;;;;10377989;28;20441;-82
2023/07/19 15:56:12;;;;;;;4.03;0.95;;;18.90;1.00;;;;;;10365862;28;20279;-79
2023/07/19 16:01:33;;;;;;;1.40;0.90;;;18.80;1.00;;;;;;10375490;28;20228;-81
2023/07/19 16:06:55;;;;;;;3.00;0.90;;;18.90;1.00;;;;;;10362300;28;20277;-79
2023/07/19 16:12:17;;;;;;;2.70;1.10;;;18.90;1.00;;;;;;10352062;28;20293;-80
2023/07/19 16:17:38;;;;;;;1.30;1.10;;;18.80;1.00;;;;;;10357838;28;20240;-80
2023/07/19 16:23:00;;;;;;;1.10;0.98;;;18.70;1.00;;;;;;10359611;28;20231;-79
2023/07/19 16:28:21;;;;;;;1.83;1.10;;;18.60;1.00;;;;;;10363327;28;20201;-79
2023/07/19 16:33:42;;;;;;;1.17;1.05;;;18.60;1.00;;;;;;10375843;28;20225;-81
2023/07/19 16:39:06;;;;;;;1.85;1.40;;;18.50;1.00;;;;;;10367119;28;20208;-79
2023/07/19 16:44:27;;;;;;;1.95;1.38;;;18.50;1.00;;;;;;10360215;28;20201;-77
2023/07/19 16:49:48;;;;;;;1.77;0.90;;;18.40;1.00;;;;;;10387163;28;20271;-79
2023/07/19 16:55:10;;;;;;;3.13;1.48;;;18.40;1.00;;;;;;10385319;28;20205;-79
2023/07/19 17:00:32;;;;;;;2.13;1.52;;;18.40;1.00;;;;;;10398981;28;20548;-79
2023/07/19 17:05:54;;;;;;;1.33;1.02;;;18.40;1.00;;;;;;10398311;28;20271;-78
2023/07/19 17:11:16;;;;;;;3.30;1.70;;;18.30;1.00;;;;;;10347874;28;20225;-79
2023/07/19 17:16:38;;;;;;;3.42;1.48;;;18.30;1.00;;;;;;10349033;28;20599;-78
2023/07/19 17:22:01;;;;;;;2.10;1.40;;;18.30;99.90;;;;;;10343759;28;20511;-78
2023/07/19 17:48:29;;;;;;;1.48;0.98;;;18.20;95.10;;;;;;10516591;28;20582;-79
2023/07/19 17:53:51;;;;;;;1.13;1.00;;;18.00;1.00;;;;;;10512437;28;20442;-82
2023/07/19 17:59:12;;;;;;;1.15;1.00;;;17.80;1.00;;;;;;10506707;28;20365;-81
2023/07/19 18:04:33;;;;;;;1.35;1.10;;;17.70;1.00;;;;;;10493934;28;20227;-81
2023/07/19 18:09:55;;;;;;;0.95;0.88;;;17.60;1.00;;;;;;10486783;28;20282;-79
2023/07/19 18:15:16;;;;;;;3.30;1.10;;;17.50;1.00;;;;;;10486876;28;20206;-80
2023/07/19 18:20:38;;;;;;;2.03;1.20;;;17.50;1.00;;;;;;10486164;28;20194;-81
2023/07/19 18:25:59;;;;;;;2.10;1.10;;;17.30;1.00;;;;;;10456809;28;20226;-80
2023/07/19 18:31:20;;;;;;;0.82;0.80;;;17.30;1.00;;;;;;10470912;28;20478;-80
2023/07/19 18:36:42;;;;;;;1.65;1.30;;;17.20;1.00;;;;;;10475266;28;20211;-81
2023/07/19 18:42:03;;;;;;;1.52;0.80;;;17.10;1.00;;;;;;10483372;28;20378;-79
2023/07/19 18:47:24;;;;;;;2.47;1.05;;;17.00;1.00;;;;;;10472811;28;20239;-78
2023/07/19 18:52:48;;;;;;;3.97;1.00;;;16.90;8.60;;;;;;10469851;28;20190;-82
2023/07/19 18:58:09;;;;;;;1.40;0.95;;;16.90;58.30;;;;;;10484526;28;20249;-80
2023/07/19 19:03:31;;;;;;;1.10;0.93;;;16.80;99.90;;;;;;10478989;28;20230;-79
2023/07/19 19:08:52;;;;;;;1.67;1.10;;;16.70;99.90;;;;;;10449326;28;20206;-80
2023/07/19 19:14:13;;;;;;;1.30;1.10;;;16.60;99.90;;;;;;10445081;28;20475;-80
2023/07/19 19:19:35;;;;;;;1.15;1.00;;;16.60;99.90;;;;;;10439617;28;20282;-79
2023/07/19 19:24:57;;;;;;;1.20;0.90;;;16.50;99.90;;;;;;10443081;28;20234;-84
2023/07/19 19:30:18;;;;;;;2.47;1.05;;;16.50;99.90;;;;;;10439749;28;20417;-82
2023/07/19 19:35:40;;;;;;;1.58;1.30;;;16.40;1.00;;;;;;10459265;28;20211;-78
2023/07/19 19:41:02;;;;;;;1.38;1.00;;;16.30;1.00;;;;;;10455599;28;20199;-83
2023/07/19 19:46:24;;;;;;;1.35;1.02;;;16.30;1.00;;;;;;10443101;28;20421;-79
2023/07/19 19:51:45;;;;;;;1.33;1.10;;;16.30;1.00;;;;;;10452858;28;20202;-80
2023/07/19 19:57:06;;;;;;;2.20;1.30;;;16.20;1.00;;;;;;10445572;28;20527;-79
2023/07/19 20:02:29;;;;;;;1.65;1.25;;;16.20;1.00;;;;;;10468897;28;20197;-80
2023/07/19 20:07:53;;;;;;;1.27;1.17;;;16.10;1.00;;;;;;10454025;28;20238;-80
2023/07/19 20:13:14;;;;;;;2.67;1.90;;;16.00;6.30;;;;;;10438586;28;20179;-79
2023/07/19 20:18:39;;;;;;;4.05;2.47;;;15.70;99.90;;;;;;10453473;28;20206;-79
2023/07/19 20:24:04;;;;;;;2.42;1.90;;;15.70;99.90;;;;;;10457180;28;20195;-82
2023/07/19 20:29:25;;;;;;;4.03;1.98;;;;;;;;;;10438182;28;20805;-83
2023/07/19 20:34:46;;;;;;;3.35;1.52;;;15.70;1.00;;;;;;10440076;28;20205;-81
2023/07/19 20:40:16;;;;;;;3.10;2.00;;;15.60;1.00;;;;;;10453319;28;20211;-79
2023/07/19 20:45:40;;;;;;;1.88;1.20;;;15.60;1.00;;;;;;10449118;28;20321;-81
2023/07/19 20:51:05;;;;;;;1.63;1.40;;;15.60;99.90;;;;;;10476269;28;20195;-81
2023/07/19 20:56:26;;;;;;;2.10;1.17;;;15.60;1.00;;;;;;10454300;28;20862;-83
2023/07/19 21:01:48;;;;;;;1.92;1.50;;;15.50;75.60;;;;;;10476805;28;20497;-79
2023/07/19 21:07:09;;;;;;;2.08;1.33;;;15.40;1.00;;;;;;10476696;28;20252;-83
2023/07/19 21:12:31;;;;;;;3.28;1.52;;;15.40;45.80;;;;;;10478095;28;20484;-79
2023/07/19 21:17:56;;;;;;;4.70;2.85;;;15.30;2.60;;;;;;10477983;28;20193;-82
2023/07/19 21:23:17;;;;;;;8.77;3.80;;;15.20;1.00;;;;;;10439112;28;20572;-79
2023/07/19 21:28:38;;;;;;;4.90;2.72;;;15.10;1.00;;;;;;10435405;28;20230;-79
2023/07/19 21:34:00;;;;;;;3.20;2.08;;;15.10;1.00;;;;;;10452739;28;20380;-80
2023/07/19 21:39:21;;;;;;;2.70;1.90;;;15.20;1.00;;;;;;10449516;28;20215;-78
2023/07/19 21:44:43;;;;;;;3.17;1.90;;;15.10;1.00;;;;;;10435685;28;20226;-79
2023/07/19 21:50:04;;;;;;;3.60;2.30;;;15.10;90.30;;;;;;10464510;28;20210;-81
2023/07/19 21:55:25;;;;;;;2.60;1.98;;;15.00;99.90;;;;;;10479580;28;20198;-79
2023/07/19 22:00:47;;;;;;;2.45;2.22;;;15.00;99.90;;;;;;10459624;28;20203;-82
2023/07/19 22:06:08;;;;;;;3.72;2.50;;;15.00;1.00;;;;;;10442767;28;20227;-79
2023/07/19 22:11:34;;;;;;;4.50;2.40;;;14.80;99.90;;;;;;10442407;28;20460;-79
2023/07/19 22:16:56;;;;;;;4.60;2.90;;;14.80;1.00;;;;;;10479707;28;20211;-79
2023/07/19 22:22:17;;;;;;;4.45;2.97;;;14.70;1.00;;;;;;10460138;28;20194;-78
2023/07/19 22:27:38;;;;;;;4.35;3.08;;;14.80;1.00;;;;;;10491768;28;20238;-79
2023/07/19 22:33:00;;;;;;;3.00;2.28;;;14.70;1.00;;;;;;10457663;28;20422;-79
2023/07/19 22:38:21;;;;;;;2.95;1.90;;;14.60;1.00;;;;;;10459083;28;20190;-80
2023/07/19 22:43:42;;;;;;;2.88;1.60;;;14.50;99.90;;;;;;10481819;28;20227;-79
2023/07/19 22:49:03;;;;;;;2.75;1.80;;;14.50;45.90;;;;;;10451002;28;20240;-79
2023/07/19 22:54:25;;;;;;;2.58;1.65;;;14.40;99.90;;;;;;10441176;28;20755;-82
2023/07/19 22:59:46;;;;;;;2.03;1.63;;;14.40;99.90;;;;;;10462495;28;20207;-80
2023/07/19 23:05:09;;;;;;;4.47;3.35;;;14.40;1.00;;;;;;10456971;28;20229;-83
2023/07/19 23:10:30;;;;;;;3.20;2.20;;;14.30;1.00;;;;;;10496011;28;20348;-83
2023/07/19 23:15:52;;;;;;;2.78;1.88;;;14.20;1.00;;;;;;10482245;28;20216;-82
2023/07/19 23:21:13;;;;;;;4.00;2.20;;;14.30;1.00;;;;;;10468236;28;20272;-83
2023/07/19 23:26:35;;;;;;;4.15;2.00;;;14.20;1.00;;;;;;10481676;28;20218;-81
2023/07/19 23:31:59;;;;;;;3.72;2.45;;;13.90;99.90;;;;;;10442648;28;20278;-79
2023/07/19 23:37:20;;;;;;;2.67;2.20;;;13.80;1.00;;;;;;10439908;28;20196;-82
2023/07/19 23:42:42;;;;;;;2.95;2.15;;;13.70;1.00;;;;;;10463544;28;20285;-79
2023/07/19 23:48:03;;;;;;;3.22;2.38;;;13.80;72.60;;;;;;10456978;28;20244;-80
2023/07/19 23:53:25;;;;;;;3.10;2.20;;;;;;;;;;10491986;28;20201;-83
2023/07/19 23:58:46;;;;;;;3.45;1.90;;;13.70;1.00;;;;;;10495593;28;20208;-79
